Parsons, Pennsylvania
Current Conditions -  °F | °C
As of 7:54 AM on Saturday 20 Dec 2014 (Local Time) from KAVP Reporting Station
Overcast Overcast  
Wind Chill: 25°   Ceiling: 2000
Heat Index: 30°   Visibility: 10mi
Dew Point: 21°   Wind: 5mph
Humidity: 69%   Direction: 350°N
Pressure: 30.23"   Gusts: NA
Location:  41.2711°N, 75.8417°W
Report Text: KAVP 201254Z AUTO 35004KT 10SM OVC020 M01/M06 A3023 RMK AO2 SLP245 T10111061
Loading
Personal Weather Stations






























Interactive Weather Map New forecast layout! Learn more

10-Day Weather Forecast

Advertisements
Track Severe Weather on mobile